Time;durP1;ratioP1;P1;durP2;ratioP2;P2;SDS_P1;SDS_P2;PMS_P1;PMS_P2;Temp;Humidity;BMP_temperature;BMP_pressure;BME280_temperature;BME280_humidity;BME280_pressure;Samples;Min_cycle;Max_cycle;Signal;HPM_P1;HPM_P2
2021/12/18 00:02:04;;;;;;;;;66.33;55.33;;;;;4.76;79.22;100993.97;5034052;28;11627;-70
2021/12/18 00:05:00;;;;;;;;;83.00;60.00;;;;;4.78;78.83;100997.25;5033134;28;11833;-70
2021/12/18 00:07:56;;;;;;;;;63.50;51.50;;;;;4.64;77.85;100984.16;5033734;28;11563;-70
2021/12/18 00:10:52;;;;;;;;;47.75;41.75;;;;;4.71;77.69;100997.56;5035173;28;11594;-70
2021/12/18 00:13:49;;;;;;;;;55.00;47.00;;;;;4.77;79.19;100995.63;5021616;28;11568;-70
2021/12/18 00:16:45;;;;;;;;;68.33;54.33;;;;;4.72;80.42;100986.31;5034067;28;12497;-70
2021/12/18 00:19:41;;;;;;;;;72.00;56.33;;;;;4.72;80.52;100991.78;5034602;28;11570;-70
2021/12/18 00:22:36;;;;;;;;;61.25;50.25;;;;;4.78;80.59;100995.31;5044758;28;11549;-69
2021/12/18 00:25:32;;;;;;;;;67.25;55.50;;;;;4.62;80.08;101002.81;5034135;28;11636;-70
2021/12/18 00:28:28;;;;;;;;;69.33;58.00;;;;;4.81;79.52;100996.66;5034709;28;11564;-70
2021/12/18 00:31:23;;;;;;;;;62.25;51.50;;;;;4.64;78.64;100997.88;5033312;28;11550;-70
2021/12/18 00:34:05;;;;;;;;;63.50;52.75;;;;;4.88;79.02;101002.66;5033694;28;11608;-70
2021/12/18 00:36:47;;;;;;;;;74.67;57.33;;;;;4.87;78.53;100999.09;5034215;28;11620;-69
2021/12/18 00:39:15;;;;;;;;;69.00;57.00;;;;;4.87;78.77;100999.09;5034286;28;11605;-69
2021/12/18 00:42:25;;;;;;;;;64.00;52.00;;;;;4.91;78.37;100996.59;5032955;28;11702;-69
2021/12/18 00:45:20;;;;;;;;;53.50;44.25;;;;;4.81;77.91;101002.16;5000443;28;11552;-69
2021/12/18 00:48:10;;;;;;;;;50.50;44.00;;;;;4.84;76.69;100996.94;5000621;28;11551;-70
2021/12/18 00:51:06;;;;;;;;;42.25;32.00;;;;;4.72;75.55;100993.72;5037582;28;11641;-70
2021/12/18 00:53:33;;;;;;;;;62.75;52.00;;;;;4.82;74.71;100990.88;5033863;28;11542;-70
2021/12/18 00:56:29;;;;;;;;;43.75;39.25;;;;;4.66;73.85;101000.31;5019647;28;11573;-70
2021/12/18 00:59:25;;;;;;;;;41.75;39.50;;;;;4.80;73.32;101003.25;5033632;28;12348;-69
2021/12/18 01:02:20;;;;;;;;;38.25;35.75;;;;;4.76;72.72;101002.19;5032665;28;11573;-70
2021/12/18 01:05:16;;;;;;;;;45.50;40.75;;;;;4.82;72.35;101012.00;5018981;28;12385;-69
2021/12/18 01:08:12;;;;;;;;;37.25;35.00;;;;;4.67;72.11;101001.94;5032574;28;11557;-70
2021/12/18 01:23:34;;;;;;;;;70.33;57.33;;;;;4.74;73.64;101016.97;5032702;28;11614;-69
2021/12/18 01:26:30;;;;;;;;;62.50;48.75;;;;;4.72;73.65;101021.13;5018700;28;11559;-69
2021/12/18 01:28:58;;;;;;;;;42.25;38.25;;;;;4.67;73.71;101016.47;5015968;28;12365;-69
2021/12/18 01:31:54;;;;;;;;;51.75;45.50;;;;;4.74;73.05;101018.91;5020617;28;11554;-69
2021/12/18 01:34:49;;;;;;;;;49.00;43.50;;;;;4.59;73.89;101028.03;5000728;28;12416;-69
2021/12/18 01:37:31;;;;;;;;;54.25;42.75;;;;;4.64;74.65;101028.00;5012974;28;11578;-69
2021/12/18 01:40:26;;;;;;;;;39.75;34.50;;;;;4.41;73.84;101028.69;5012198;28;11558;-70
2021/12/18 01:52:54;;;;;;;;;53.50;46.75;;;;;4.71;73.33;101028.50;5025087;28;12433;-71
2021/12/18 01:55:51;;;;;;;;;52.50;46.50;;;;;4.55;73.33;101028.88;5020201;28;11635;-70
2021/12/18 01:58:48;;;;;;;;;54.50;48.75;;;;;4.72;73.04;101034.81;5031780;28;11550;-70
2021/12/18 02:01:43;;;;;;;;;52.25;45.75;;;;;4.84;72.74;101031.75;5031648;28;11569;-70
2021/12/18 02:04:29;;;;;;;;;57.25;45.50;;;;;4.73;71.67;101033.72;5017577;28;11595;-70
2021/12/18 02:07:25;;;;;;;;;54.75;48.00;;;;;4.73;71.83;101034.53;5033243;28;11601;-70
2021/12/18 02:10:24;;;;;;;;;48.00;40.00;;;;;4.64;70.41;101041.69;5033132;28;11534;-70
2021/12/18 02:19:57;;;;;;;;;52.75;40.75;;;;;4.62;70.04;101049.41;5038395;28;11513;-70
2021/12/18 02:22:27;;;;;;;;;63.00;44.75;;;;;4.80;70.02;101047.91;5021530;28;11636;-69
2021/12/18 02:25:24;;;;;;;;;53.25;39.50;;;;;4.81;69.37;101051.47;5025069;28;11582;-70
2021/12/18 02:28:24;;;;;;;;;45.25;36.25;;;;;4.78;69.13;101052.03;5050099;28;11547;-69
2021/12/18 02:31:20;;;;;;;;;22.75;18.50;;;;;4.51;69.15;101050.53;5038168;28;11559;-69
2021/12/18 02:34:23;;;;;;;;;28.50;26.75;;;;;4.57;69.31;101054.88;5039106;28;11559;-69
2021/12/18 02:36:50;;;;;;;;;57.25;43.50;;;;;4.73;69.03;101052.88;5021696;28;11632;-70
2021/12/18 02:42:25;;;;;;;;;50.50;45.00;;;;;5.00;69.58;101063.41;5037974;28;11707;-69
2021/12/18 02:44:53;;;;;;;;;45.50;43.25;;;;;4.92;69.81;101064.03;5038592;28;11578;-69
2021/12/18 02:47:49;;;;;;;;;57.00;46.00;;;;;4.67;70.74;101076.75;5035505;28;11661;-69
2021/12/18 02:50:44;;;;;;;;;38.50;36.25;;;;;4.56;71.37;101069.69;5025017;28;11522;-70
2021/12/18 02:53:46;;;;;;;;;64.00;53.00;;;;;4.51;73.52;101077.09;5024814;28;11571;-69
2021/12/18 02:56:42;;;;;;;;;59.00;49.50;;;;;4.56;73.87;101074.34;5037921;28;11599;-70
2021/12/18 02:59:50;;;;;;;;;61.00;50.75;;;;;4.56;75.62;101085.31;5037970;28;11540;-70
2021/12/18 03:02:46;;;;;;;;;65.00;54.33;;;;;4.68;76.10;101083.88;5024648;28;11518;-70
2021/12/18 03:05:52;;;;;;;;;52.75;45.50;;;;;4.55;76.33;101076.28;5024805;28;11552;-71
2021/12/18 03:26:55;;;;;;;;;55.25;44.00;;;;;4.26;79.42;101105.41;5035965;28;11582;-70
2021/12/18 03:29:51;;;;;;;;;51.75;45.75;;;;;4.25;79.74;101103.78;5033761;28;11624;-70
2021/12/18 03:32:47;;;;;;;;;62.75;49.00;;;;;4.51;79.09;101099.03;5034350;28;11537;-70
2021/12/18 03:35:30;;;;;;;;;47.25;44.25;;;;;4.30;79.09;101106.50;5020005;28;11573;-70
2021/12/18 03:38:25;;;;;;;;;77.67;59.33;;;;;4.25;79.83;101114.72;5045796;28;11584;-70
2021/12/18 03:41:21;;;;;;;;;68.67;54.67;;;;;4.39;79.77;101102.91;5035577;28;8837;-70
2021/12/18 03:44:16;;;;;;;;;61.67;53.33;;;;;4.48;79.93;101111.38;5046099;28;8876;-70
2021/12/18 03:46:52;;;;;;;;;46.00;43.50;;;;;4.46;79.74;101116.31;5049418;28;11567;-70
2021/12/18 03:49:48;;;;;;;;;35.50;32.25;;;;;4.54;79.75;101113.00;5045882;28;11573;-70
2021/12/18 03:52:44;;;;;;;;;42.25;39.75;;;;;4.32;80.45;101116.06;5034893;28;12277;-70
2021/12/18 03:55:40;;;;;;;;;64.00;50.50;;;;;4.28;80.63;101114.16;5045803;28;11574;-69
2021/12/18 03:58:35;;;;;;;;;46.50;43.75;;;;;4.27;80.53;101115.25;5033893;28;11683;-70
2021/12/18 04:01:03;;;;;;;;;59.75;46.50;;;;;4.27;80.48;101123.47;5049983;28;11650;-70
2021/12/18 04:03:59;;;;;;;;;70.33;57.33;;;;;4.22;80.97;101126.22;5033344;28;11687;-69
2021/12/18 04:06:42;;;;;;;;;63.67;47.00;;;;;4.32;81.05;101137.16;5034923;28;12480;-69
2021/12/18 04:09:38;;;;;;;;;40.67;40.33;;;;;4.04;81.64;101142.13;5021897;28;11625;-70
2021/12/18 04:12:33;;;;;;;;;63.75;50.25;;;;;4.15;81.35;101151.16;5033643;28;11576;-69
2021/12/18 04:15:29;;;;;;;;;55.50;45.50;;;;;4.35;80.80;101148.38;5045531;28;12277;-70
2021/12/18 04:18:25;;;;;;;;;47.25;44.25;;;;;4.27;80.71;101154.41;5020301;28;11571;-70
2021/12/18 04:21:20;;;;;;;;;39.25;38.00;;;;;4.19;81.24;101152.25;5033421;28;11560;-70
2021/12/18 04:24:16;;;;;;;;;35.00;32.00;;;;;4.21;81.16;101150.03;5002460;28;11574;-69
2021/12/18 04:26:44;;;;;;;;;36.25;35.25;;;;;4.07;80.99;101154.47;5016872;28;11553;-69
2021/12/18 04:29:40;;;;;;;;;37.25;34.00;;;;;4.24;80.91;101157.72;5021198;28;11546;-69
2021/12/18 04:32:36;;;;;;;;;34.00;34.00;;;;;4.06;81.40;101153.63;5020885;28;11536;-70
2021/12/18 04:35:32;;;;;;;;;32.00;31.25;;;;;3.97;81.75;101163.50;5013189;28;11574;-70
2021/12/18 04:38:28;;;;;;;;;36.50;34.75;;;;;4.12;81.32;101160.75;5013412;28;11559;-70
2021/12/18 04:41:36;;;;;;;;;39.25;38.00;;;;;3.94;81.44;101165.97;5029449;28;12356;-70
2021/12/18 04:44:31;;;;;;;;;50.25;45.25;;;;;4.00;81.40;101162.13;5013924;28;11541;-70
2021/12/18 04:46:59;;;;;;;;;45.75;42.00;;;;;4.09;80.68;101161.31;5029403;28;12349;-70
2021/12/18 04:49:55;;;;;;;;;50.25;43.75;;;;;4.06;80.96;101166.50;5014943;28;11530;-70
2021/12/18 04:52:52;;;;;;;;;56.67;50.33;;;;;4.01;80.82;101169.25;5024768;28;11553;-70
2021/12/18 04:55:48;;;;;;;;;46.25;42.75;;;;;3.75;80.33;101180.19;5032902;28;12334;-70
2021/12/18 04:58:43;;;;;;;;;53.25;44.75;;;;;3.94;80.33;101177.75;5033464;28;12453;-70
2021/12/18 05:01:11;;;;;;;;;51.75;46.50;;;;;3.94;80.26;101183.22;5028617;28;12330;-70
2021/12/18 05:04:10;;;;;;;;;62.00;51.67;;;;;4.01;79.85;101191.16;5033563;28;12332;-70
2021/12/18 05:07:05;;;;;;;;;54.75;46.75;;;;;3.89;79.89;101191.41;5022645;28;11590;-70
2021/12/18 05:10:02;;;;;;;;;52.33;46.33;;;;;3.88;79.94;101189.78;5019461;28;11618;-70
2021/12/18 05:12:58;;;;;;;;;66.00;56.00;;;;;4.11;78.81;101194.69;5019836;28;11601;-70
2021/12/18 05:15:46;;;;;;;;;69.67;54.00;;;;;4.04;78.84;101196.06;5033204;28;11585;-70
2021/12/18 05:18:41;;;;;;;;;56.00;48.33;;;;;3.78;79.54;101203.47;5019600;28;8846;-70
2021/12/18 05:21:37;;;;;;;;;56.33;49.00;;;;;3.88;79.50;101204.28;5032235;28;11552;-70
2021/12/18 05:24:33;;;;;;;;;59.67;50.00;;;;;4.04;79.66;101204.28;5032272;28;11647;-70
2021/12/18 05:27:28;;;;;;;;;57.00;46.00;;;;;4.01;79.31;101200.19;5032748;28;11625;-70
2021/12/18 05:30:24;;;;;;;;;58.00;49.67;;;;;3.77;79.45;101207.31;5032633;28;12407;-70
2021/12/18 05:33:20;;;;;;;;;64.00;51.00;;;;;3.96;79.42;101222.06;5033577;28;11520;-70
2021/12/18 05:35:47;;;;;;;;;40.50;38.75;;;;;3.89;79.42;101222.34;5033274;28;11542;-70
2021/12/18 05:38:43;;;;;;;;;32.75;32.75;;;;;3.81;79.75;101230.28;5031820;28;11674;-74
2021/12/18 05:41:38;;;;;;;;;45.50;42.25;;;;;3.81;79.83;101230.28;5031884;28;11560;-74
2021/12/18 05:44:35;;;;;;;;;56.75;49.75;;;;;3.93;79.80;101244.53;5024598;28;11635;-74
2021/12/18 05:47:25;;;;;;;;;57.00;49.33;;;;;3.94;79.12;101248.06;4999574;28;12428;-74
2021/12/18 05:50:21;;;;;;;;;52.25;44.00;;;;;4.06;78.81;101243.13;5014183;28;8848;-74
2021/12/18 05:53:18;;;;;;;;;69.00;53.67;;;;;4.04;79.08;101246.16;5027363;28;11574;-74
2021/12/18 05:56:13;;;;;;;;;71.33;59.00;;;;;3.88;79.01;101252.72;5032038;28;8896;-74
2021/12/18 05:59:09;;;;;;;;;74.33;61.00;;;;;3.88;79.44;101253.53;5033789;28;9579;-75
2021/12/18 06:02:05;;;;;;;;;68.00;54.00;;;;;3.81;79.20;101263.09;5031869;28;8842;-74
2021/12/18 06:05:01;;;;;;;;;68.33;54.33;;;;;3.90;78.93;101264.19;5031796;28;11668;-75
2021/12/18 06:07:31;;;;;;;;;51.00;44.25;;;;;3.79;78.76;101268.84;5033063;28;8853;-74
2021/12/18 06:10:09;;;;;;;;;41.00;33.00;;;;;3.73;78.66;101267.19;5032850;28;11587;-74
2021/12/18 06:13:04;;;;;;;;;46.25;42.00;;;;;3.73;78.76;101272.66;5018196;28;11570;-73
2021/12/18 06:16:00;;;;;;;;;46.25;40.25;;;;;3.92;78.07;101267.50;5031842;28;11563;-74
2021/12/18 06:18:55;;;;;;;;;36.50;33.50;;;;;3.98;77.54;101271.88;5031348;28;11736;-73
2021/12/18 06:21:37;;;;;;;;;46.50;44.50;;;;;3.97;77.26;101272.97;5014873;28;11503;-73
2021/12/18 06:24:33;;;;;;;;;61.75;46.00;;;;;3.99;77.22;101268.06;5018813;28;11700;-73
2021/12/18 06:27:00;;;;;;;;;62.00;46.00;;;;;3.93;77.04;101271.06;5015014;28;11530;-73
2021/12/18 06:29:31;;;;;;;;;49.75;43.75;;;;;4.01;76.26;101273.25;5032756;28;11534;-73
2021/12/18 06:32:27;;;;;;;;;74.00;56.00;;;;;4.19;76.17;101275.44;5026537;28;11542;-74
2021/12/18 06:35:22;;;;;;;;;75.25;55.75;;;;;4.06;75.51;101281.47;5032076;28;8821;-73
2021/12/18 06:38:04;;;;;;;;;75.67;56.00;;;;;3.86;75.52;101282.28;5032183;28;11663;-73
2021/12/18 06:40:32;;;;;;;;;77.33;59.33;;;;;4.09;75.31;101280.94;5032919;28;8846;-74
2021/12/18 06:43:27;;;;;;;;;85.33;63.00;;;;;4.24;74.83;101283.66;5035443;28;8830;-73
2021/12/18 06:45:55;;;;;;;;;74.00;57.00;;;;;4.27;74.38;101290.50;5034785;28;8839;-74
2021/12/18 06:48:51;;;;;;;;;75.33;57.33;;;;;4.37;74.23;101285.00;5051391;28;11571;-74
2021/12/18 06:51:46;;;;;;;;;76.67;57.67;;;;;4.11;72.87;101287.75;5049697;28;8851;-74
2021/12/18 06:54:14;;;;;;;;;79.33;62.00;;;;;4.36;72.78;101300.63;5034466;28;11587;-75
2021/12/18 06:56:42;;;;;;;;;63.33;47.67;;;;;4.21;72.29;101299.81;5032797;28;8854;-75
2021/12/18 06:59:37;;;;;;;;;38.50;34.25;;;;;4.26;71.60;101299.81;5036029;28;11627;-75
2021/12/18 07:02:33;;;;;;;;;24.50;16.25;;;;;4.20;71.25;101296.25;5035783;28;11539;-74
2021/12/18 07:05:28;;;;;;;;;33.75;32.25;;;;;4.29;71.02;101297.34;5016960;28;11732;-74
2021/12/18 07:08:24;;;;;;;;;32.25;31.25;;;;;4.12;70.77;101294.88;5027544;28;11687;-74
2021/12/18 07:11:20;;;;;;;;;45.00;41.75;;;;;4.12;71.54;101297.63;5028078;28;11644;-74
2021/12/18 07:14:15;;;;;;;;;56.25;48.75;;;;;4.31;71.67;101306.13;5028200;28;11559;-74
2021/12/18 07:17:11;;;;;;;;;61.33;53.33;;;;;4.30;72.26;101309.16;5021319;28;11585;-74
2021/12/18 07:20:08;;;;;;;;;68.00;54.00;;;;;4.27;72.00;101305.00;5019365;28;11554;-75
2021/12/18 07:23:04;;;;;;;;;72.67;58.00;;;;;4.38;72.75;101319.53;5005058;28;11589;-74
2021/12/18 07:26:00;;;;;;;;;46.50;43.50;;;;;4.20;71.69;101320.88;4996354;28;8850;-74
2021/12/18 07:28:55;;;;;;;;;34.50;31.75;;;;;4.39;70.99;101324.75;4996889;28;11566;-74
2021/12/18 07:31:51;;;;;;;;;42.50;39.50;;;;;4.21;71.79;101335.41;5001660;28;11644;-73
2021/12/18 07:34:47;;;;;;;;;32.75;25.00;;;;;4.33;71.67;101328.56;5025008;28;11564;-73
2021/12/18 07:37:15;;;;;;;;;30.25;30.00;;;;;4.46;70.64;101338.16;5028799;28;11536;-73
2021/12/18 07:39:43;;;;;;;;;47.25;43.00;;;;;4.47;71.08;101337.88;5023193;28;11521;-74
2021/12/18 07:42:38;;;;;;;;;57.50;44.75;;;;;4.60;70.93;101355.69;5016017;28;11589;-74
2021/12/18 07:45:35;;;;;;;;;49.00;45.00;;;;;4.69;70.67;101354.03;5015468;28;11571;-74
2021/12/18 07:48:30;;;;;;;;;36.00;35.50;;;;;4.50;71.04;101354.88;5026078;28;11558;-74
2021/12/18 07:50:58;;;;;;;;;46.00;42.50;;;;;4.56;71.60;101362.81;4998287;28;11623;-73
2021/12/18 07:53:53;;;;;;;;;38.50;35.25;;;;;4.69;71.99;101365.00;5000235;28;11605;-73
2021/12/18 07:56:49;;;;;;;;;56.00;46.25;;;;;4.75;71.15;101368.53;5025778;28;11557;-74
2021/12/18 07:59:44;;;;;;;;;45.00;36.75;;;;;4.38;72.06;101363.38;5013090;28;12282;-74
2021/12/18 08:02:40;;;;;;;;;39.75;38.00;;;;;4.50;71.56;101361.16;5014044;28;11574;-74
2021/12/18 08:05:36;;;;;;;;;21.75;21.25;;;;;4.40;71.84;101361.16;5027962;28;11553;-74
2021/12/18 08:08:32;;;;;;;;;49.50;41.00;;;;;4.52;71.10;101356.22;5034022;28;12398;-74
2021/12/18 08:11:00;;;;;;;;;40.25;38.75;;;;;4.49;71.25;101355.97;5034832;28;11550;-74
2021/12/18 08:13:28;;;;;;;;;36.25;34.00;;;;;4.56;71.66;101362.00;5035118;28;11547;-74
2021/12/18 08:16:24;;;;;;;;;22.75;22.25;;;;;4.53;71.26;101357.88;5022077;28;11643;-73
2021/12/18 08:19:20;;;;;;;;;31.00;31.00;;;;;4.49;71.85;101358.69;5046111;28;11739;-75
2021/12/18 08:22:15;;;;;;;;;23.25;18.00;;;;;4.52;71.80;101350.75;5045093;28;11774;-73
2021/12/18 08:25:11;;;;;;;;;31.25;31.25;;;;;4.45;71.93;101350.22;5005624;28;11532;-74
2021/12/18 08:28:07;;;;;;;;;52.50;42.50;;;;;4.65;71.74;101352.13;5034695;28;11573;-74
2021/12/18 08:31:03;;;;;;;;;50.00;44.50;;;;;4.57;72.74;101350.75;5021642;28;12336;-74
2021/12/18 08:33:58;;;;;;;;;29.50;26.75;;;;;4.54;72.71;101351.31;5033228;28;11589;-74
2021/12/18 08:36:26;;;;;;;;;23.25;23.25;;;;;4.46;73.09;101343.66;5034358;28;11550;-74
2021/12/18 08:38:54;;;;;;;;;38.00;31.75;;;;;4.63;72.86;101343.38;5016649;28;11557;-74
2021/12/18 08:41:49;;;;;;;;;43.00;39.00;;;;;4.34;73.63;101340.34;5044790;28;11631;-74
2021/12/18 08:44:45;;;;;;;;;44.75;40.75;;;;;4.38;73.97;101341.47;5032637;28;11565;-74
2021/12/18 08:47:43;;;;;;;;;28.75;28.75;;;;;4.34;73.69;101340.34;5043290;28;11549;-74
2021/12/18 08:50:17;;;;;;;;;24.00;23.75;;;;;4.37;73.71;101339.78;5032524;28;11627;-74
2021/12/18 08:53:13;;;;;;;;;42.00;41.25;;;;;4.37;74.56;101343.38;5030730;28;11559;-74
2021/12/18 08:55:55;;;;;;;;;30.50;30.50;;;;;4.26;74.36;101349.94;5029237;28;12353;-75
2021/12/18 08:58:51;;;;;;;;;40.50;38.50;;;;;4.37;74.56;101340.63;5027785;28;11552;-75
2021/12/18 09:01:21;;;;;;;;;42.25;40.50;;;;;4.37;75.16;101345.25;5032293;28;11585;-75
2021/12/18 09:03:50;;;;;;;;;38.75;38.00;;;;;4.47;74.47;101346.09;5032216;28;11562;-75
2021/12/18 09:06:46;;;;;;;;;36.25;36.25;;;;;4.30;74.39;101351.03;5030130;28;11548;-74
2021/12/18 09:09:41;;;;;;;;;27.25;27.00;;;;;4.40;74.61;101350.22;5033122;28;12392;-75
2021/12/18 09:12:11;;;;;;;;;46.00;41.25;;;;;4.25;74.72;101348.28;5033243;28;12430;-75
2021/12/18 09:15:07;;;;;;;;;32.50;32.50;;;;;4.39;74.71;101348.56;5019422;28;11575;-74
2021/12/18 09:17:35;;;;;;;;;31.75;30.50;;;;;4.23;75.15;101346.91;5031655;28;11630;-75
2021/12/18 09:20:32;;;;;;;;;19.25;17.50;;;;;4.29;75.03;101349.38;5000483;28;11729;-74
2021/12/18 09:23:27;;;;;;;;;31.50;24.75;;;;;4.17;75.58;101349.66;5028187;28;11515;-75
2021/12/18 09:26:23;;;;;;;;;23.75;21.50;;;;;4.16;76.13;101356.22;5032742;28;11701;-75
2021/12/18 09:29:19;;;;;;;;;21.50;19.25;;;;;3.96;76.38;101358.91;5032255;28;11603;-75
2021/12/18 09:32:15;;;;;;;;;31.50;30.50;;;;;4.23;75.86;101364.16;5031960;28;11547;-75
2021/12/18 09:34:47;;;;;;;;;34.00;32.25;;;;;4.42;75.86;101353.50;5016767;28;12365;-74
2021/12/18 09:37:44;;;;;;;;;37.50;36.75;;;;;4.17;75.98;101360.59;5024724;28;11543;-74
2021/12/18 09:40:40;;;;;;;;;54.00;46.25;;;;;4.28;76.27;101352.38;5035203;28;11532;-75
2021/12/18 09:43:37;;;;;;;;;51.00;45.00;;;;;4.45;75.88;101358.44;5032404;28;11593;-74
2021/12/18 09:46:13;;;;;;;;;48.75;44.00;;;;;4.54;75.52;101358.72;5033045;28;11654;-73
2021/12/18 09:49:09;;;;;;;;;57.25;45.50;;;;;4.55;74.93;101350.22;5043950;28;11668;-74
2021/12/18 09:52:05;;;;;;;;;58.25;47.50;;;;;4.54;74.72;101355.97;5043137;28;11546;-73
2021/12/18 09:54:32;;;;;;;;;63.00;51.25;;;;;4.40;74.43;101362.00;5031104;28;12331;-74
2021/12/18 09:57:00;;;;;;;;;65.75;53.50;;;;;4.24;75.56;101354.03;5032915;28;11536;-74
2021/12/18 09:59:30;;;;;;;;;65.00;52.75;;;;;4.35;75.19;101352.94;5016294;28;11547;-73
2021/12/18 10:02:26;;;;;;;;;60.75;50.25;;;;;4.31;75.41;101352.69;5043057;28;12308;-73
2021/12/18 10:05:27;;;;;;;;;53.75;43.25;;;;;4.33;74.49;101353.22;5008634;28;11649;-74
2021/12/18 10:08:22;;;;;;;;;48.75;44.50;;;;;4.32;75.05;101359.78;5031936;28;11587;-74
2021/12/18 10:11:18;;;;;;;;;66.50;54.75;;;;;4.50;74.78;101349.38;5031950;28;11536;-75
2021/12/18 10:14:15;;;;;;;;;43.00;41.25;;;;;4.49;74.48;101354.03;5032501;28;11556;-74
2021/12/18 10:17:39;;;;;;;;;54.50;47.50;;;;;4.43;74.40;101355.13;5032145;28;11629;-75
2021/12/18 10:20:35;;;;;;;;;64.50;52.00;;;;;4.54;73.86;101356.78;5031369;28;11724;-74
2021/12/18 10:23:31;;;;;;;;;54.25;47.00;;;;;4.50;73.39;101363.91;5032339;28;11632;-74
2021/12/18 10:26:36;;;;;;;;;58.25;43.75;;;;;4.74;73.00;101370.47;5032120;28;11585;-75
2021/12/18 10:29:36;;;;;;;;;40.75;37.00;;;;;4.50;73.14;101365.81;5034008;28;11551;-75
2021/12/18 10:32:06;;;;;;;;;35.50;32.00;;;;;4.24;72.98;101363.06;5017379;28;11616;-75
2021/12/18 10:34:37;;;;;;;;;44.75;41.50;;;;;4.53;72.93;101360.63;5037025;28;11576;-75
2021/12/18 10:37:13;;;;;;;;;69.00;55.25;;;;;4.48;72.79;101355.13;5037123;28;11580;-74
2021/12/18 10:40:06;;;;;;;;;73.25;56.00;;;;;4.40;72.75;101355.69;5036813;28;11677;-74
2021/12/18 10:42:39;;;;;;;;;73.50;58.75;;;;;4.37;73.29;101358.97;5036831;28;11670;-74
2021/12/18 10:45:10;;;;;;;;;89.33;68.67;;;;;4.58;72.51;101360.59;5051839;28;12371;-75
2021/12/18 10:47:56;;;;;;;;;39.00;38.50;;;;;4.54;72.11;101355.97;5035435;28;8909;-74
2021/12/18 10:50:29;;;;;;;;;41.75;39.00;;;;;4.58;71.54;101352.38;5036522;28;11549;-74
2021/12/18 10:53:05;;;;;;;;;37.75;35.25;;;;;4.45;71.50;101356.53;5051385;28;11608;-72
2021/12/18 10:55:44;;;;;;;;;62.25;51.25;;;;;4.54;71.50;101354.06;5034138;28;11584;-73
2021/12/18 10:58:33;;;;;;;;;40.50;40.00;;;;;4.55;71.50;101352.94;5017351;28;11579;-73
2021/12/18 11:01:14;;;;;;;;;62.00;50.25;;;;;4.64;71.25;101359.53;5036219;28;11587;-73
2021/12/18 11:03:47;;;;;;;;;29.75;28.75;;;;;4.49;71.04;101361.44;5018855;28;11545;-73
2021/12/18 11:06:27;;;;;;;;;39.25;34.25;;;;;4.36;71.07;101365.53;5036239;28;11619;-74
2021/12/18 11:09:11;;;;;;;;;42.50;41.25;;;;;4.67;70.79;101371.84;5019991;28;11614;-74
2021/12/18 11:14:23;;;;;;;;;30.50;30.00;;;;;4.77;70.62;101365.56;5035444;28;12434;-75
2021/12/18 11:17:19;;;;;;;;;39.75;37.00;;;;;4.95;69.92;101370.44;5036499;28;11543;-75
2021/12/18 11:20:15;;;;;;;;;30.00;30.00;;;;;4.65;69.29;101371.31;5034856;28;11579;-75
2021/12/18 11:23:10;;;;;;;;;39.50;36.75;;;;;4.72;69.05;101378.16;5021444;28;11572;-75
2021/12/18 11:25:41;;;;;;;;;37.75;35.50;;;;;4.68;68.48;101374.31;5034782;28;11601;-75
2021/12/18 11:28:10;;;;;;;;;45.00;42.75;;;;;4.75;67.42;101371.28;5033271;28;11570;-76
2021/12/18 11:30:38;;;;;;;;;62.50;50.50;;;;;4.68;67.75;101368.03;5016150;28;11566;-75
2021/12/18 11:33:11;;;;;;;;;44.50;40.75;;;;;4.49;67.92;101367.75;5048393;28;11560;-74
2021/12/18 11:36:08;;;;;;;;;39.00;34.50;;;;;4.62;67.34;101369.94;5021751;28;11553;-75
2021/12/18 11:39:04;;;;;;;;;35.75;30.00;;;;;4.56;67.48;101367.47;5033899;28;11583;-76
2021/12/18 11:42:00;;;;;;;;;19.75;17.50;;;;;4.38;67.03;101363.38;5033799;28;11625;-74
2021/12/18 11:45:05;;;;;;;;;33.25;30.25;;;;;4.69;66.97;101369.66;5033804;28;12341;-75
2021/12/18 11:48:02;;;;;;;;;30.50;28.50;;;;;4.44;66.62;101359.50;4961956;28;11628;-74
2021/12/18 11:51:12;;;;;;;;;36.00;31.50;;;;;4.44;67.18;101374.03;5034139;28;11582;-74
2021/12/18 11:53:40;;;;;;;;;37.25;37.25;;;;;4.44;66.88;101373.22;5016049;28;11559;-74
2021/12/18 11:56:09;;;;;;;;;19.50;18.50;;;;;4.33;67.68;101368.81;5017827;28;11571;-74
2021/12/18 11:58:45;;;;;;;;;19.25;19.25;;;;;4.48;67.05;101374.31;5018050;28;11575;-75
2021/12/18 12:01:45;;;;;;;;;28.00;25.00;;;;;4.34;67.12;101376.75;5034557;28;11728;-74
2021/12/18 12:05:14;;;;;;;;;22.75;22.75;;;;;4.25;67.59;101383.88;5021755;28;11555;-75
2021/12/18 12:08:28;;;;;;;;;22.25;22.25;;;;;4.45;67.70;101380.34;5007700;28;11614;-74
2021/12/18 12:11:26;;;;;;;;;36.25;32.50;;;;;4.39;67.73;101386.91;5033313;28;11624;-75
2021/12/18 12:14:25;;;;;;;;;29.75;25.50;;;;;4.43;67.45;101383.34;5033638;28;11553;-74
2021/12/18 12:17:25;;;;;;;;;23.00;22.25;;;;;4.39;67.18;101387.72;5034472;28;11573;-74
2021/12/18 12:20:05;;;;;;;;;27.00;25.25;;;;;4.64;66.26;101383.34;5047881;28;11579;-74
2021/12/18 12:23:02;;;;;;;;;24.75;23.75;;;;;4.56;66.82;101394.88;5027366;28;11568;-73
2021/12/18 12:25:51;;;;;;;;;45.75;41.00;;;;;4.45;69.07;101405.00;5017799;28;11527;-74
2021/12/18 12:28:53;;;;;;;;;43.00;36.25;;;;;4.11;72.06;101412.88;5019395;28;11573;-76
2021/12/18 12:31:56;;;;;;;;;24.25;23.50;;;;;4.00;73.82;101400.25;5031405;28;11565;-74
2021/12/18 12:34:33;;;;;;;;;49.50;43.50;;;;;4.02;73.63;101414.50;5046860;28;11532;-74
2021/12/18 12:37:31;;;;;;;;;38.00;35.25;;;;;3.95;72.53;101417.47;5007882;28;12311;-74
2021/12/18 12:40:07;;;;;;;;;48.00;41.75;;;;;3.95;71.44;101405.72;5036946;28;11664;-74
2021/12/18 12:43:11;;;;;;;;;54.00;48.50;;;;;4.08;70.56;101397.00;5032044;28;11554;-72
2021/12/18 12:45:42;;;;;;;;;48.75;41.75;;;;;4.14;70.89;101402.22;5029044;28;11657;-76
2021/12/18 12:48:10;;;;;;;;;81.33;65.33;;;;;4.49;69.66;101408.81;5029634;28;11676;-74
2021/12/18 12:51:06;;;;;;;;;61.25;49.75;;;;;4.21;68.78;101398.38;5015295;28;8852;-73
2021/12/18 12:54:02;;;;;;;;;50.75;45.75;;;;;4.22;69.05;101405.50;5032349;28;11657;-74
2021/12/18 12:56:30;;;;;;;;;55.50;43.75;;;;;4.45;68.76;101413.22;5048134;28;11669;-73
2021/12/18 12:59:26;;;;;;;;;51.00;44.75;;;;;4.39;68.86;101414.31;5016530;28;11595;-74
2021/12/18 13:01:54;;;;;;;;;65.25;49.00;;;;;4.56;68.11;101425.00;5030590;28;11590;-75
2021/12/18 13:05:08;;;;;;;;;69.00;55.75;;;;;4.49;68.10;101413.50;5032336;28;11582;-74
2021/12/18 13:08:04;;;;;;;;;50.25;41.50;;;;;4.47;68.04;101416.50;5033988;28;11743;-74
2021/12/18 13:10:39;;;;;;;;;44.25;41.75;;;;;4.25;67.96;101407.69;5033318;28;11642;-75
2021/12/18 13:13:16;;;;;;;;;52.75;46.75;;;;;4.44;68.34;101415.09;5033377;28;11576;-74
2021/12/18 13:16:17;;;;;;;;;70.00;54.00;;;;;4.68;68.35;101418.16;5020669;28;11551;-75
2021/12/18 13:19:13;;;;;;;;;24.25;19.75;;;;;4.71;68.05;101423.09;5043753;28;12357;-74
2021/12/18 13:22:12;;;;;;;;;60.25;47.50;;;;;4.66;68.22;101423.06;5034715;28;11504;-76
2021/12/18 13:25:10;;;;;;;;;40.75;36.75;;;;;4.47;68.50;101427.47;5019005;28;11551;-75
2021/12/18 13:28:06;;;;;;;;;45.00;41.00;;;;;4.59;68.40;101436.22;5002303;28;11606;-75
2021/12/18 13:30:35;;;;;;;;;38.50;38.50;;;;;4.64;68.64;101435.41;5026982;28;11562;-75
2021/12/18 13:33:06;;;;;;;;;34.25;33.50;;;;;4.54;68.63;101430.75;5032501;28;11575;-76
2021/12/18 13:35:36;;;;;;;;;27.75;27.75;;;;;4.57;68.78;101437.59;5032932;28;11572;-75
2021/12/18 13:38:07;;;;;;;;;28.50;28.50;;;;;4.62;68.69;101438.44;5032976;28;11541;-75
2021/12/18 13:40:44;;;;;;;;;23.75;22.25;;;;;4.65;68.86;101442.53;5046006;28;11577;-76
2021/12/18 13:43:17;;;;;;;;;20.75;20.75;;;;;4.60;68.70;101439.78;5034714;28;11593;-76
2021/12/18 13:45:58;;;;;;;;;15.50;15.50;;;;;4.70;69.22;101440.63;5048429;28;11626;-74
2021/12/18 13:48:33;;;;;;;;;15.50;15.50;;;;;4.58;68.73;101444.72;5033250;28;11608;-74
2021/12/18 13:51:20;;;;;;;;;14.25;13.75;;;;;4.49;69.65;101438.97;5030310;28;11592;-75